KVEL/VEL METAR and TAF weather

Enter ICAO airport designator
Station Type Date Time Source
KVEL METAR 2022/12/04 10:53 UTC NOAA

KVEL 041053Z AUTO 00000KT 10SM OVC095 M04/M08 A3029 RMK AO2 SLP290 T10391078


Station Type Date Time Source
KVEL Decoded METAR 2022/12/04 10:53 UTC NOAA

VERNAL AIRPORT, UT, United States (KVEL) 40-26N 109-30W 1604M
Dec 04, 2022 - 05:53 AM EST / 2022.12.04 1053 UTC
Wind: Calm:0
Visibility: 10 mile(s):0
Sky conditions: overcast
Temperature: 25.0 F (-3.9 C)
Dew Point: 18.0 F (-7.8 C)
Relative Humidity: 74%
Pressure (altimeter): 30.29 in. Hg (1025 hPa)
ob: KVEL 041053Z AUTO 00000KT 10SM OVC095 M04/M08 A3029 RMK AO2 SLP290 T10391078
cycle: 11

Station Type Date Time Source
KVEL TAF 2022/12/04 12:48 UTC NOAA

TAF KVEL 041147Z 0412/0512 00000KT P6SM OVC070

Example: see airport list